Time;durP1;ratioP1;P1;durP2;ratioP2;P2;SDS_P1;SDS_P2;PMS_P1;PMS_P2;Temp;Humidity;BMP_temperature;BMP_pressure;BME280_temperature;BME280_humidity;BME280_pressure;Samples;Min_cycle;Max_cycle;Signal;HPM_P1;HPM_P2
2023/12/01 00:00:59;;;;;;;40.53;21.50;;;1.80;99.90;;;;;;5021163;28;20210;-36
2023/12/01 00:03:25;;;;;;;43.30;21.60;;;1.80;99.90;;;;;;5053145;28;20231;-37
2023/12/01 00:05:51;;;;;;;44.78;22.42;;;1.80;99.90;;;;;;5020931;28;20698;-39
2023/12/01 00:08:17;;;;;;;43.38;22.50;;;1.80;99.90;;;;;;5021296;28;20591;-39
2023/12/01 00:10:43;;;;;;;43.92;22.95;;;1.70;99.90;;;;;;5018766;28;20690;-37
2023/12/01 00:13:09;;;;;;;43.63;22.02;;;1.70;99.90;;;;;;5020035;28;20207;-39
2023/12/01 00:15:35;;;;;;;39.60;20.77;;;1.70;99.90;;;;;;5002404;28;20202;-36
2023/12/01 00:18:00;;;;;;;39.45;21.65;;;1.70;99.90;;;;;;5020729;28;20219;-40
2023/12/01 00:20:26;;;;;;;40.45;22.08;;;1.70;99.90;;;;;;5020644;28;20184;-39
2023/12/01 00:22:52;;;;;;;40.28;21.67;;;1.70;99.90;;;;;;5019345;28;20223;-37
2023/12/01 00:25:19;;;;;;;37.38;20.63;;;1.60;99.90;;;;;;5019493;28;20180;-38
2023/12/01 00:27:45;;;;;;;36.17;20.58;;;1.50;99.90;;;;;;5021258;28;20202;-38
2023/12/01 00:30:11;;;;;;;31.17;19.33;;;1.50;99.90;;;;;;5051819;28;20672;-37
2023/12/01 00:32:37;;;;;;;35.65;20.63;;;1.40;99.90;;;;;;5020904;28;20750;-37
2023/12/01 00:35:03;;;;;;;36.15;20.05;;;1.40;99.90;;;;;;5020478;28;20225;-38
2023/12/01 00:37:31;;;;;;;35.40;19.90;;;1.30;99.90;;;;;;5020940;28;20222;-38
2023/12/01 00:39:57;;;;;;;33.53;19.55;;;1.20;99.90;;;;;;5019042;28;20215;-38
2023/12/01 00:42:23;;;;;;;38.38;21.25;;;1.30;99.90;;;;;;5022198;28;20292;-38
2023/12/01 00:44:50;;;;;;;35.53;21.15;;;1.20;99.90;;;;;;5022227;28;20184;-38
2023/12/01 00:47:15;;;;;;;37.53;21.55;;;1.20;99.90;;;;;;5024687;28;20294;-38
2023/12/01 00:49:41;;;;;;;39.05;22.35;;;1.30;99.90;;;;;;5024831;28;20183;-38
2023/12/01 00:52:08;;;;;;;39.83;22.70;;;1.30;99.90;;;;;;5056824;28;21008;-39
2023/12/01 00:54:34;;;;;;;37.28;21.30;;;1.30;99.90;;;;;;5056792;28;20603;-40
2023/12/01 00:57:00;;;;;;;40.03;21.33;;;1.40;99.90;;;;;;5024494;28;20195;-37
2023/12/01 00:59:26;;;;;;;40.05;22.38;;;1.40;99.90;;;;;;5023946;28;20241;-41
2023/12/01 01:01:52;;;;;;;44.15;23.02;;;1.40;99.90;;;;;;5056440;28;20200;-39
2023/12/01 01:04:18;;;;;;;41.05;21.92;;;1.40;99.90;;;;;;5023906;28;20231;-40
2023/12/01 01:06:44;;;;;;;39.33;21.80;;;1.40;99.90;;;;;;5024389;28;20188;-39
2023/12/01 01:09:10;;;;;;;38.28;20.55;;;1.40;99.90;;;;;;5024340;28;20714;-37
2023/12/01 01:11:36;;;;;;;41.33;22.60;;;1.40;99.90;;;;;;5024463;28;20196;-39
2023/12/01 01:14:02;;;;;;;43.45;23.08;;;1.40;99.90;;;;;;5024803;28;20191;-37
2023/12/01 01:16:28;;;;;;;48.05;23.27;;;1.40;99.90;;;;;;5038850;28;20529;-37
2023/12/01 01:18:54;;;;;;;46.25;22.02;;;1.40;99.90;;;;;;5022377;28;20675;-37
2023/12/01 01:21:20;;;;;;;48.55;24.48;;;1.40;99.90;;;;;;5023314;28;20201;-37
2023/12/01 01:23:45;;;;;;;53.00;24.75;;;1.30;99.90;;;;;;5024335;28;20269;-37
2023/12/01 01:26:13;;;;;;;45.22;22.55;;;1.20;99.90;;;;;;5024728;28;20184;-35
2023/12/01 01:28:40;;;;;;;49.83;23.60;;;1.10;99.90;;;;;;5006076;28;20195;-37
2023/12/01 01:31:06;;;;;;;52.83;25.10;;;1.00;99.90;;;;;;5055186;28;20533;-37
2023/12/01 01:33:32;;;;;;;54.67;24.92;;;0.90;99.90;;;;;;5022947;28;20196;-38
2023/12/01 01:35:58;;;;;;;53.28;24.88;;;0.90;99.90;;;;;;5006036;28;20214;-37
2023/12/01 01:38:24;;;;;;;51.58;24.88;;;0.80;99.90;;;;;;5055792;28;20271;-41
2023/12/01 01:40:50;;;;;;;47.95;22.85;;;0.80;99.90;;;;;;5024085;28;20261;-36
2023/12/01 01:43:25;;;;;;;50.92;24.60;;;0.80;99.90;;;;;;5055724;28;20223;-38
2023/12/01 01:46:18;;;;;;;45.95;22.63;;;0.80;99.90;;;;;;5055603;28;20183;-37
2023/12/01 01:48:44;;;;;;;46.22;22.98;;;0.80;99.90;;;;;;5023732;28;21140;-37
2023/12/01 01:51:10;;;;;;;53.20;22.45;;;0.80;99.90;;;;;;5021674;28;20255;-39
2023/12/01 01:53:43;;;;;;;43.67;22.55;;;0.80;99.90;;;;;;5022613;28;20588;-37
2023/12/01 01:56:12;;;;;;;49.72;22.88;;;0.80;99.90;;;;;;5023379;28;20188;-39
2023/12/01 01:58:39;;;;;;;50.30;23.40;;;0.80;99.90;;;;;;5054770;28;20550;-40
2023/12/01 02:01:07;;;;;;;50.03;22.65;;;0.70;99.90;;;;;;5036863;28;20207;-37
2023/12/01 02:03:34;;;;;;;57.97;24.15;;;0.70;99.90;;;;;;5021228;28;20580;-39
2023/12/01 02:06:06;;;;;;;53.33;25.20;;;0.70;99.90;;;;;;5022094;28;20217;-41
2023/12/01 02:08:33;;;;;;;54.55;25.50;;;0.70;99.90;;;;;;5022471;28;20533;-36
2023/12/01 02:11:00;;;;;;;53.03;25.85;;;0.70;99.90;;;;;;5022347;28;20560;-38
2023/12/01 02:13:26;;;;;;;57.75;26.05;;;0.70;99.90;;;;;;5005307;28;20550;-38
2023/12/01 02:15:53;;;;;;;60.35;25.40;;;0.70;99.90;;;;;;5021998;28;20200;-37
2023/12/01 02:18:25;;;;;;;54.22;24.92;;;0.80;99.90;;;;;;5022386;28;20218;-37
2023/12/01 02:20:54;;;;;;;58.88;27.20;;;0.80;99.90;;;;;;5005345;28;20245;-38
2023/12/01 02:23:20;;;;;;;60.47;26.02;;;0.70;99.90;;;;;;5054459;28;20273;-38
2023/12/01 02:25:47;;;;;;;60.63;27.00;;;0.70;99.90;;;;;;5022954;28;20667;-36
2023/12/01 02:28:14;;;;;;;63.88;26.20;;;0.70;99.90;;;;;;5020417;28;20683;-37
2023/12/01 02:30:41;;;;;;;59.70;27.25;;;0.70;99.90;;;;;;5023035;28;20234;-37
2023/12/01 02:33:07;;;;;;;66.22;28.00;;;0.70;99.90;;;;;;5021117;28;20196;-38
2023/12/01 02:35:34;;;;;;;62.42;28.17;;;0.70;99.90;;;;;;5021882;28;20202;-41
2023/12/01 02:38:00;;;;;;;69.60;28.13;;;0.70;99.90;;;;;;5029303;28;20184;-41
2023/12/01 02:40:27;;;;;;;61.25;27.05;;;0.80;99.90;;;;;;5022687;28;20273;-36
2023/12/01 02:42:53;;;;;;;55.40;25.35;;;0.80;99.90;;;;;;5021057;28;20211;-37
2023/12/01 02:45:21;;;;;;;52.58;24.33;;;0.70;99.90;;;;;;5023610;28;20198;-38
2023/12/01 02:47:50;;;;;;;57.53;25.92;;;0.70;99.90;;;;;;5022682;28;20219;-39
2023/12/01 02:50:19;;;;;;;56.33;25.80;;;0.60;99.90;;;;;;5022097;28;20616;-38
2023/12/01 02:52:45;;;;;;;60.17;27.00;;;0.60;99.90;;;;;;5021365;28;20224;-37
2023/12/01 02:55:11;;;;;;;57.60;25.92;;;0.60;99.90;;;;;;5021312;28;20215;-41
2023/12/01 02:57:41;;;;;;;57.90;25.70;;;0.50;99.90;;;;;;5021868;28;20196;-40
2023/12/01 03:00:13;;;;;;;60.42;26.92;;;0.50;99.90;;;;;;5022275;28;20204;-39
2023/12/01 03:02:41;;;;;;;59.72;27.42;;;0.50;99.90;;;;;;5003852;28;20259;-37
2023/12/01 03:05:08;;;;;;;66.82;28.63;;;0.40;99.90;;;;;;5021806;28;20182;-39
2023/12/01 03:07:38;;;;;;;62.22;27.88;;;0.30;99.90;;;;;;5020703;28;20196;-41
2023/12/01 03:10:09;;;;;;;61.63;27.30;;;0.30;99.90;;;;;;5020528;28;20267;-37
2023/12/01 03:12:39;;;;;;;57.85;25.88;;;0.10;99.90;;;;;;5022495;28;20227;-37
2023/12/01 03:15:17;;;;;;;60.17;24.85;;;0.00;99.90;;;;;;5020891;28;20272;-38
2023/12/01 03:17:44;;;;;;;54.58;22.02;;;-0.10;99.90;;;;;;5020673;28;20201;-37
2023/12/01 03:20:10;;;;;;;53.83;25.05;;;-0.20;99.90;;;;;;5022698;28;20192;-36
2023/12/01 03:22:38;;;;;;;54.00;24.58;;;-0.20;99.90;;;;;;5022035;28;20584;-46
2023/12/01 03:25:09;;;;;;;55.53;26.02;;;-0.30;99.90;;;;;;5021952;28;20275;-36
2023/12/01 03:27:44;;;;;;;56.60;25.98;;;-0.40;99.90;;;;;;5021723;28;20184;-37
2023/12/01 03:30:15;;;;;;;58.80;25.77;;;-0.50;99.90;;;;;;5020631;28;20262;-42
2023/12/01 03:32:52;;;;;;;53.60;24.52;;;-0.50;99.90;;;;;;5019777;28;20207;-38
2023/12/01 03:35:22;;;;;;;59.85;26.17;;;-0.60;99.90;;;;;;5012956;28;20215;-39
2023/12/01 03:37:49;;;;;;;58.05;26.52;;;-0.60;99.90;;;;;;5021258;28;20254;-39
2023/12/01 03:40:15;;;;;;;56.30;25.70;;;-0.60;99.90;;;;;;5021839;28;20199;-38
2023/12/01 03:42:44;;;;;;;59.40;26.38;;;-0.70;99.90;;;;;;5053008;28;20668;-39
2023/12/01 03:45:12;;;;;;;58.95;25.90;;;-0.70;99.90;;;;;;5018682;28;20180;-37
2023/12/01 03:47:43;;;;;;;60.95;27.58;;;-0.70;99.90;;;;;;5021408;28;20202;-38
2023/12/01 03:50:11;;;;;;;53.50;24.55;;;-0.80;99.90;;;;;;5021542;28;20652;-38
2023/12/01 03:52:42;;;;;;;53.75;23.17;;;-0.80;99.90;;;;;;5020884;28;20287;-38
2023/12/01 03:55:10;;;;;;;55.40;23.65;;;-0.80;99.90;;;;;;5020887;28;20187;-39
2023/12/01 03:57:40;;;;;;;53.13;24.23;;;-0.80;99.90;;;;;;5020853;28;20183;-37
2023/12/01 04:00:13;;;;;;;54.47;22.80;;;-0.80;99.90;;;;;;5021506;28;20271;-39
2023/12/01 04:02:41;;;;;;;54.00;22.60;;;-0.80;99.90;;;;;;5035925;28;20555;-37
2023/12/01 04:05:08;;;;;;;51.28;23.75;;;-0.80;99.90;;;;;;5003614;28;20184;-39
2023/12/01 04:07:35;;;;;;;55.53;21.73;;;-0.80;99.90;;;;;;5021310;28;20270;-38
2023/12/01 04:10:03;;;;;;;48.58;21.63;;;-0.80;99.90;;;;;;5020557;28;20303;-41
2023/12/01 04:12:30;;;;;;;50.75;21.05;;;-0.90;99.90;;;;;;5021447;28;20773;-38
2023/12/01 04:14:57;;;;;;;48.08;21.95;;;-0.80;99.90;;;;;;5020702;28;20208;-38
2023/12/01 04:17:23;;;;;;;47.95;23.20;;;-0.90;99.90;;;;;;5018030;28;20230;-38
2023/12/01 04:19:49;;;;;;;48.75;22.70;;;-0.80;99.90;;;;;;5021149;28;20291;-36
2023/12/01 04:22:16;;;;;;;55.17;24.27;;;-0.80;99.90;;;;;;5019595;28;20188;-37
2023/12/01 04:24:42;;;;;;;50.92;22.55;;;-0.90;99.90;;;;;;5021070;28;20198;-40
2023/12/01 04:27:07;;;;;;;50.20;23.10;;;-0.90;99.90;;;;;;5019210;28;20196;-37
2023/12/01 04:29:33;;;;;;;48.60;21.77;;;-0.90;99.90;;;;;;5020199;28;20192;-38
2023/12/01 04:32:00;;;;;;;51.13;23.55;;;-0.90;99.90;;;;;;5021257;28;20188;-37
2023/12/01 04:34:26;;;;;;;52.63;23.10;;;-1.00;99.90;;;;;;5051057;28;20191;-37
2023/12/01 04:36:53;;;;;;;49.65;21.75;;;-1.00;99.90;;;;;;5020580;28;20644;-36
2023/12/01 04:39:20;;;;;;;56.05;25.10;;;-1.00;99.90;;;;;;5020704;28;20547;-37
2023/12/01 04:41:50;;;;;;;52.45;22.75;;;-1.00;99.90;;;;;;5020120;28;20180;-40
2023/12/01 04:44:17;;;;;;;53.20;24.25;;;-1.00;99.90;;;;;;5019267;28;20220;-36
2023/12/01 04:46:43;;;;;;;50.97;23.55;;;-1.00;99.90;;;;;;5051877;28;20186;-36
2023/12/01 04:49:09;;;;;;;52.78;23.58;;;-1.00;99.90;;;;;;5021036;28;20188;-46
2023/12/01 04:51:36;;;;;;;46.92;21.17;;;-1.10;99.90;;;;;;5021151;28;20210;-36
2023/12/01 04:54:06;;;;;;;50.58;22.77;;;-1.00;99.90;;;;;;5021033;28;20187;-37
2023/12/01 04:56:33;;;;;;;48.22;20.30;;;-1.10;99.90;;;;;;5021049;28;20564;-37
2023/12/01 04:59:00;;;;;;;46.95;20.60;;;-1.20;99.90;;;;;;5020750;28;20317;-37
2023/12/01 05:01:26;;;;;;;47.72;22.00;;;-1.10;99.90;;;;;;5020708;28;20990;-38
2023/12/01 05:03:52;;;;;;;49.33;21.33;;;-1.10;99.90;;;;;;5020094;28;20338;-38
2023/12/01 05:06:18;;;;;;;47.03;20.73;;;-1.10;99.90;;;;;;5019522;28;20755;-37
2023/12/01 05:08:44;;;;;;;49.25;21.95;;;-1.10;99.90;;;;;;5020700;28;20624;-38
2023/12/01 05:11:10;;;;;;;49.65;22.77;;;-1.10;99.90;;;;;;5020309;28;20300;-36
2023/12/01 05:13:36;;;;;;;49.53;22.45;;;-1.10;99.90;;;;;;5020468;28;20307;-38
2023/12/01 05:16:02;;;;;;;48.65;21.95;;;-1.20;99.90;;;;;;5018806;28;20759;-38
2023/12/01 05:18:28;;;;;;;49.88;22.90;;;-1.20;99.90;;;;;;5019446;28;20639;-36
2023/12/01 05:20:53;;;;;;;44.78;21.08;;;-1.20;99.90;;;;;;5019545;28;20202;-36
2023/12/01 05:23:19;;;;;;;49.88;21.80;;;-1.20;99.90;;;;;;5019394;28;20220;-37
2023/12/01 05:25:47;;;;;;;47.10;21.52;;;-1.20;99.90;;;;;;5019942;28;20222;-37
2023/12/01 05:28:13;;;;;;;47.72;22.33;;;-1.30;99.90;;;;;;5021455;28;20228;-38
2023/12/01 05:30:41;;;;;;;48.85;22.23;;;-1.20;99.90;;;;;;5023034;28;20203;-36
2023/12/01 05:33:08;;;;;;;52.97;23.13;;;-1.20;99.90;;;;;;5023703;28;20209;-39
2023/12/01 05:35:35;;;;;;;49.70;22.90;;;-1.30;99.90;;;;;;5056000;28;20320;-38
2023/12/01 05:38:04;;;;;;;46.77;21.53;;;-1.20;99.90;;;;;;5055643;28;20255;-39
2023/12/01 05:40:35;;;;;;;42.35;19.92;;;-1.30;99.90;;;;;;5023912;28;20203;-36
2023/12/01 05:43:02;;;;;;;48.30;21.48;;;-1.30;99.90;;;;;;5023476;28;20208;-37
2023/12/01 05:45:33;;;;;;;50.03;21.85;;;-1.30;99.90;;;;;;5023295;28;20549;-36
2023/12/01 05:48:00;;;;;;;42.60;19.52;;;-1.30;99.90;;;;;;5055699;28;20235;-36
2023/12/01 05:50:27;;;;;;;47.75;20.30;;;-1.30;99.90;;;;;;5023172;28;20239;-37
2023/12/01 05:52:56;;;;;;;48.38;22.17;;;-1.20;99.90;;;;;;5023302;28;20207;-36
2023/12/01 05:55:29;;;;;;;53.42;21.38;;;-1.30;99.90;;;;;;5020620;28;20717;-38
2023/12/01 05:57:58;;;;;;;51.40;22.92;;;-1.30;99.90;;;;;;5023633;28;20249;-38
2023/12/01 06:00:31;;;;;;;53.05;22.92;;;-1.30;99.90;;;;;;5024228;28;20299;-37
2023/12/01 06:03:06;;;;;;;49.10;21.40;;;-1.30;99.90;;;;;;5055119;28;20236;-36
2023/12/01 06:05:32;;;;;;;45.55;19.83;;;-1.30;99.90;;;;;;5022938;28;20179;-38
2023/12/01 06:08:00;;;;;;;50.45;23.05;;;-1.30;99.90;;;;;;5022913;28;20184;-38
2023/12/01 06:10:27;;;;;;;52.03;24.17;;;-1.20;99.90;;;;;;5022664;28;20196;-38
2023/12/01 06:12:53;;;;;;;48.75;22.15;;;-1.30;99.90;;;;;;5022899;28;20227;-39
2023/12/01 06:15:20;;;;;;;59.03;24.63;;;-1.30;99.90;;;;;;5023120;28;20538;-38
2023/12/01 06:17:47;;;;;;;52.00;22.60;;;-1.30;99.90;;;;;;5021683;28;20192;-36
2023/12/01 06:20:19;;;;;;;46.42;20.67;;;-1.30;99.90;;;;;;5022976;28;20240;-37
2023/12/01 06:22:57;;;;;;;46.00;20.70;;;-1.30;99.90;;;;;;5023054;28;20269;-37
2023/12/01 06:25:27;;;;;;;40.00;19.43;;;-1.30;99.90;;;;;;5021428;28;20541;-39
2023/12/01 06:27:57;;;;;;;42.25;19.13;;;-1.30;99.90;;;;;;5021296;28;20194;-44
2023/12/01 06:30:25;;;;;;;40.60;20.17;;;-1.20;99.90;;;;;;5021214;28;20326;-37
2023/12/01 06:32:51;;;;;;;39.67;19.50;;;-1.30;99.90;;;;;;5022019;28;20247;-37
2023/12/01 06:35:19;;;;;;;41.63;19.60;;;-1.30;99.90;;;;;;5022595;28;20188;-36
2023/12/01 06:37:46;;;;;;;40.90;18.65;;;-1.30;99.90;;;;;;5022774;28;20202;-38
2023/12/01 06:40:15;;;;;;;40.25;19.00;;;-1.30;99.90;;;;;;5021944;28;20204;-37
2023/12/01 06:42:43;;;;;;;41.10;18.65;;;-1.30;99.90;;;;;;5022524;28;20242;-38
2023/12/01 06:45:12;;;;;;;39.83;19.50;;;-1.30;99.90;;;;;;5021295;28;20222;-38
2023/12/01 06:47:40;;;;;;;36.80;19.45;;;-1.30;99.90;;;;;;5021998;28;20612;-38
2023/12/01 06:50:09;;;;;;;36.83;18.10;;;-1.30;99.90;;;;;;5021971;28;20302;-39
2023/12/01 06:52:36;;;;;;;39.90;19.05;;;-1.30;99.90;;;;;;5022764;28;20192;-36
2023/12/01 06:55:04;;;;;;;37.40;18.75;;;-1.30;99.90;;;;;;5022452;28;20200;-37
2023/12/01 06:57:30;;;;;;;38.63;18.20;;;-1.30;99.90;;;;;;5021830;28;20211;-38
2023/12/01 06:59:56;;;;;;;37.97;18.65;;;-1.30;99.90;;;;;;5020452;28;20313;-38
2023/12/01 07:02:23;;;;;;;37.33;18.77;;;-1.30;99.90;;;;;;5022617;28;20739;-39
2023/12/01 07:04:49;;;;;;;46.58;19.10;;;-1.30;99.90;;;;;;5022058;28;20688;-39
2023/12/01 07:07:15;;;;;;;41.15;19.98;;;-1.20;99.90;;;;;;5022452;28;20191;-38
2023/12/01 07:09:43;;;;;;;36.85;18.70;;;-1.20;99.90;;;;;;5021633;28;20187;-38
2023/12/01 07:12:09;;;;;;;43.83;20.65;;;-1.20;99.90;;;;;;5019934;28;20227;-38
2023/12/01 07:14:36;;;;;;;43.38;18.27;;;-1.20;99.90;;;;;;5021460;28;20237;-38
2023/12/01 07:17:05;;;;;;;36.25;18.33;;;-1.20;99.90;;;;;;5020775;28;20176;-39
2023/12/01 07:19:32;;;;;;;36.80;18.90;;;-1.20;99.90;;;;;;5023158;28;20191;-37
2023/12/01 07:21:59;;;;;;;37.20;18.88;;;-1.20;99.90;;;;;;5022186;28;20223;-39
2023/12/01 07:24:25;;;;;;;35.05;18.17;;;-1.20;99.90;;;;;;5020942;28;20238;-38
2023/12/01 07:26:53;;;;;;;36.67;18.88;;;-1.20;99.90;;;;;;5020203;28;20180;-40
2023/12/01 07:29:19;;;;;;;37.20;18.57;;;-1.20;99.90;;;;;;5051937;28;20586;-39
2023/12/01 07:31:45;;;;;;;40.72;19.63;;;-1.20;99.90;;;;;;5036781;28;20227;-38
2023/12/01 07:34:11;;;;;;;39.92;19.05;;;-1.20;99.90;;;;;;5020193;28;20183;-37
2023/12/01 07:36:39;;;;;;;43.17;19.23;;;-1.20;99.90;;;;;;5021312;28;20645;-37
2023/12/01 07:39:05;;;;;;;42.35;20.95;;;-1.20;99.90;;;;;;5020065;28;20274;-37
2023/12/01 07:41:33;;;;;;;43.70;20.30;;;-1.30;99.90;;;;;;5020411;28;20644;-37
2023/12/01 07:43:59;;;;;;;45.53;20.05;;;-1.30;99.90;;;;;;5021738;28;20253;-39
2023/12/01 07:46:25;;;;;;;48.15;22.33;;;-1.30;99.90;;;;;;5020686;28;20242;-37
2023/12/01 07:48:51;;;;;;;49.88;22.65;;;-1.30;99.90;;;;;;5021181;28;20667;-37
2023/12/01 07:51:17;;;;;;;46.95;22.10;;;-1.30;99.90;;;;;;5020116;28;20192;-39
2023/12/01 07:53:44;;;;;;;43.67;20.58;;;-1.30;99.90;;;;;;5021041;28;20191;-38
2023/12/01 07:56:19;;;;;;;50.50;23.15;;;-1.30;99.90;;;;;;5017720;28;20648;-41
2023/12/01 07:58:45;;;;;;;54.90;23.42;;;-1.20;99.90;;;;;;5017535;28;20191;-38
2023/12/01 08:01:14;;;;;;;50.83;23.35;;;-1.20;99.90;;;;;;5020322;28;20188;-36
2023/12/01 08:03:45;;;;;;;48.40;21.60;;;-1.20;99.90;;;;;;5051858;28;20245;-38
2023/12/01 08:06:11;;;;;;;48.20;22.70;;;-1.10;99.90;;;;;;5018740;28;20259;-38
2023/12/01 08:08:37;;;;;;;48.10;22.10;;;-1.10;99.90;;;;;;5019513;28;20188;-39
2023/12/01 08:11:06;;;;;;;50.17;22.48;;;-1.10;99.90;;;;;;5021331;28;21268;-39
2023/12/01 08:13:32;;;;;;;49.35;22.63;;;-1.00;99.90;;;;;;5051588;28;20195;-38
2023/12/01 08:15:59;;;;;;;50.10;21.05;;;-1.00;99.90;;;;;;5019772;28;20200;-39
2023/12/01 08:18:25;;;;;;;62.47;25.67;;;-0.90;99.90;;;;;;5020464;28;20636;-39
2023/12/01 08:20:50;;;;;;;54.30;22.55;;;-0.90;99.90;;;;;;5052402;28;20192;-37
2023/12/01 08:23:17;;;;;;;44.92;23.65;;;-0.80;99.90;;;;;;5018590;28;20223;-38
2023/12/01 08:25:44;;;;;;;46.80;22.90;;;-0.80;99.90;;;;;;5020415;28;20608;-37
2023/12/01 08:28:10;;;;;;;49.67;22.60;;;-0.80;99.90;;;;;;5020868;28;20179;-40
2023/12/01 08:30:36;;;;;;;51.83;23.77;;;-0.80;99.90;;;;;;5020577;28;20253;-37
2023/12/01 08:33:03;;;;;;;45.70;20.17;;;-0.70;99.90;;;;;;5052925;28;20184;-38
2023/12/01 08:35:29;;;;;;;44.17;21.42;;;-0.70;99.90;;;;;;5020258;28;20656;-37
2023/12/01 08:37:55;;;;;;;52.22;24.10;;;-0.70;99.90;;;;;;5020434;28;20190;-39
2023/12/01 08:40:22;;;;;;;48.95;22.45;;;-0.60;99.90;;;;;;5020194;28;20207;-39
2023/12/01 08:42:52;;;;;;;46.53;22.25;;;-0.60;99.90;;;;;;5018391;28;20223;-38
2023/12/01 08:45:18;;;;;;;47.33;22.83;;;-0.60;99.90;;;;;;5020500;28;20202;-38
2023/12/01 08:47:44;;;;;;;45.33;22.95;;;-0.60;99.90;;;;;;5018871;28;20287;-38
2023/12/01 08:50:10;;;;;;;51.80;25.23;;;-0.50;99.90;;;;;;5021360;28;20634;-39
2023/12/01 08:52:40;;;;;;;47.50;21.67;;;-0.50;99.90;;;;;;5020501;28;20203;-39
2023/12/01 08:55:06;;;;;;;51.00;22.83;;;-0.50;99.90;;;;;;5018884;28;20239;-39
2023/12/01 08:57:33;;;;;;;46.13;21.95;;;-0.50;99.90;;;;;;5019784;28;20706;-37
2023/12/01 08:59:59;;;;;;;44.90;22.38;;;-0.50;99.90;;;;;;5020711;28;20196;-36
2023/12/01 09:02:25;;;;;;;47.95;23.40;;;-0.40;99.90;;;;;;5020049;28;20596;-39
2023/12/01 09:04:51;;;;;;;47.38;20.50;;;-0.40;99.90;;;;;;5024490;28;20239;-36
2023/12/01 09:07:17;;;;;;;40.05;20.13;;;-0.40;99.90;;;;;;5056140;28;20227;-38
2023/12/01 09:09:43;;;;;;;40.95;20.88;;;-0.30;99.90;;;;;;5024693;28;20180;-39
2023/12/01 09:12:09;;;;;;;48.35;21.38;;;-0.30;99.90;;;;;;5023048;28;20525;-40
2023/12/01 09:14:35;;;;;;;42.33;21.20;;;-0.20;99.90;;;;;;5023631;28;20195;-38
2023/12/01 09:17:01;;;;;;;44.30;21.58;;;-0.10;99.90;;;;;;5022793;28;20224;-40
2023/12/01 09:19:26;;;;;;;45.40;22.85;;;-0.10;99.90;;;;;;5024189;28;20210;-38
2023/12/01 09:21:52;;;;;;;45.05;19.98;;;0.00;99.90;;;;;;5023781;28;20198;-40
2023/12/01 09:24:18;;;;;;;43.60;20.35;;;0.00;99.90;;;;;;5023666;28;20254;-38
2023/12/01 09:26:44;;;;;;;40.67;20.85;;;0.00;99.90;;;;;;5024108;28;21315;-41
2023/12/01 09:29:10;;;;;;;38.78;21.02;;;0.00;99.90;;;;;;5022603;28;20188;-38
2023/12/01 09:31:47;;;;;;;40.15;22.20;;;0.00;99.90;;;;;;5023413;28;20211;-38
2023/12/01 09:34:12;;;;;;;39.90;20.60;;;0.10;99.90;;;;;;5024123;28;20187;-38
2023/12/01 09:36:41;;;;;;;54.15;28.35;;;0.10;99.90;;;;;;5023311;28;20183;-39
2023/12/01 09:39:07;;;;;;;47.65;26.33;;;0.10;99.90;;;;;;5023242;28;20334;-41
2023/12/01 09:41:35;;;;;;;37.75;19.83;;;0.20;99.90;;;;;;5023331;28;20199;-38
2023/12/01 09:44:02;;;;;;;36.95;19.52;;;0.30;99.90;;;;;;5021375;28;20212;-42
2023/12/01 09:46:34;;;;;;;35.92;19.02;;;0.30;99.90;;;;;;5023184;28;20311;-39
2023/12/01 09:49:05;;;;;;;35.20;19.85;;;0.30;99.90;;;;;;5020946;28;20195;-37
2023/12/01 09:51:36;;;;;;;37.53;19.75;;;0.40;99.90;;;;;;5023137;28;20612;-39
2023/12/01 09:54:03;;;;;;;44.22;21.85;;;0.40;99.90;;;;;;5021994;28;20192;-39
2023/12/01 09:56:30;;;;;;;41.35;20.48;;;0.50;99.90;;;;;;5022345;28;20192;-38
2023/12/01 09:58:56;;;;;;;38.72;20.58;;;0.50;99.90;;;;;;5055242;28;20534;-38
2023/12/01 10:01:27;;;;;;;34.20;18.20;;;0.60;99.90;;;;;;5023188;28;20191;-38
2023/12/01 10:03:53;;;;;;;35.95;19.10;;;0.60;99.90;;;;;;5023850;28;20280;-38
2023/12/01 10:06:19;;;;;;;35.15;18.35;;;0.60;99.90;;;;;;5023196;28;20188;-36
2023/12/01 10:08:49;;;;;;;35.60;18.42;;;0.60;99.90;;;;;;5055312;28;20188;-38
2023/12/01 10:11:22;;;;;;;34.58;18.20;;;0.60;99.90;;;;;;5038352;28;20188;-39
2023/12/01 10:13:52;;;;;;;35.75;19.45;;;0.70;99.90;;;;;;5021917;28;20635;-38
2023/12/01 10:16:18;;;;;;;36.95;19.85;;;0.70;99.90;;;;;;5021755;28;20192;-38
2023/12/01 10:19:00;;;;;;;36.67;21.20;;;0.70;99.90;;;;;;5055449;28;20215;-39
2023/12/01 10:21:53;;;;;;;34.28;18.83;;;0.70;99.90;;;;;;5021306;28;20614;-38
2023/12/01 10:24:20;;;;;;;34.00;18.30;;;0.70;99.90;;;;;;5021326;28;20224;-39
2023/12/01 10:26:47;;;;;;;37.25;19.80;;;0.70;99.90;;;;;;5023003;28;20230;-38
2023/12/01 10:29:29;;;;;;;39.30;21.27;;;0.70;99.90;;;;;;5021589;28;20192;-37
2023/12/01 10:32:00;;;;;;;38.30;18.73;;;0.70;99.90;;;;;;5020880;28;20656;-39
2023/12/01 10:34:26;;;;;;;38.65;19.88;;;0.70;99.90;;;;;;5022621;28;20614;-38
2023/12/01 10:36:52;;;;;;;32.33;17.83;;;0.80;99.90;;;;;;5023640;28;20672;-38
2023/12/01 10:39:24;;;;;;;33.65;18.67;;;0.80;99.90;;;;;;5054993;28;20271;-38
2023/12/01 10:41:50;;;;;;;38.40;19.83;;;0.80;99.90;;;;;;5022860;28;20192;-38
2023/12/01 10:44:17;;;;;;;38.78;19.73;;;0.80;99.90;;;;;;5022162;28;20590;-39
2023/12/01 10:46:47;;;;;;;37.88;20.90;;;0.90;99.90;;;;;;5022202;28;20192;-37
2023/12/01 10:49:17;;;;;;;35.95;18.95;;;0.90;99.90;;;;;;5023296;28;20188;-37
2023/12/01 10:51:52;;;;;;;33.28;17.73;;;0.80;99.90;;;;;;5021683;28;20253;-36
2023/12/01 10:54:23;;;;;;;38.50;18.85;;;0.80;99.90;;;;;;5021863;28;20222;-41
2023/12/01 10:56:58;;;;;;;33.72;19.05;;;0.90;99.90;;;;;;5020600;28;20215;-37
2023/12/01 10:59:26;;;;;;;38.10;19.83;;;0.90;99.90;;;;;;5022208;28;20196;-38
2023/12/01 11:01:53;;;;;;;38.20;19.50;;;0.90;99.90;;;;;;5021831;28;20294;-37
2023/12/01 11:04:27;;;;;;;37.70;19.33;;;0.90;99.90;;;;;;5021284;28;20266;-39
2023/12/01 11:07:06;;;;;;;36.80;18.85;;;1.00;99.90;;;;;;5021865;28;20290;-38
2023/12/01 11:09:45;;;;;;;36.33;18.67;;;1.00;99.90;;;;;;5019877;28;20642;-36
2023/12/01 11:12:49;;;;;;;36.53;19.77;;;1.10;99.90;;;;;;5052407;28;20635;-37
2023/12/01 11:15:21;;;;;;;35.80;19.05;;;1.10;99.90;;;;;;5021675;28;20187;-38
2023/12/01 11:17:49;;;;;;;36.53;19.10;;;1.20;99.90;;;;;;5021924;28;20254;-38
2023/12/01 11:20:30;;;;;;;37.28;17.90;;;1.20;99.90;;;;;;5021878;28;20519;-39
2023/12/01 11:23:24;;;;;;;36.40;18.95;;;1.30;99.90;;;;;;5022524;28;20207;-39
2023/12/01 11:25:55;;;;;;;32.80;17.00;;;1.30;99.90;;;;;;5021460;28;20188;-39
2023/12/01 11:28:46;;;;;;;35.15;17.85;;;1.40;99.90;;;;;;5021214;28;20226;-36
2023/12/01 11:31:40;;;;;;;36.90;19.13;;;1.40;99.90;;;;;;4986692;28;20189;-37
2023/12/01 11:34:08;;;;;;;43.15;18.80;;;1.40;99.90;;;;;;5021489;28;20207;-36
2023/12/01 11:36:36;;;;;;;36.55;18.83;;;1.50;99.90;;;;;;5021054;28;20579;-39
2023/12/01 11:41:43;;;;;;;36.35;18.42;;;1.50;99.90;;;;;;5021115;28;20593;-39
2023/12/01 11:44:29;;;;;;;32.78;17.33;;;1.60;99.90;;;;;;5020954;28;20584;-37
2023/12/01 11:46:57;;;;;;;34.55;18.40;;;1.70;99.90;;;;;;5021355;28;20374;-40
2023/12/01 11:49:38;;;;;;;35.15;19.05;;;1.90;99.90;;;;;;5021204;28;20196;-39
2023/12/01 11:52:14;;;;;;;29.85;17.80;;;1.90;99.90;;;;;;5020430;28;20187;-39
2023/12/01 11:54:41;;;;;;;33.97;18.45;;;2.00;99.90;;;;;;5020361;28;20272;-37
2023/12/01 11:57:09;;;;;;;32.03;17.83;;;2.10;99.90;;;;;;5021415;28;20194;-35
2023/12/01 11:59:36;;;;;;;38.80;19.15;;;2.10;99.90;;;;;;5019434;28;20211;-38
2023/12/01 12:02:03;;;;;;;30.63;17.92;;;2.10;99.90;;;;;;5021532;28;20250;-41
2023/12/01 12:04:29;;;;;;;34.72;18.45;;;2.10;99.90;;;;;;5020181;28;20228;-38
2023/12/01 12:07:00;;;;;;;36.30;19.02;;;2.20;99.90;;;;;;5020202;28;20208;-38
2023/12/01 12:09:32;;;;;;;33.35;18.65;;;2.20;99.90;;;;;;5053237;28;20195;-39
2023/12/01 12:12:00;;;;;;;33.55;18.27;;;2.20;99.90;;;;;;5052381;28;20184;-40
2023/12/01 12:14:28;;;;;;;34.42;19.60;;;2.20;99.90;;;;;;5020661;28;20257;-36
2023/12/01 12:16:55;;;;;;;36.28;20.05;;;2.20;99.90;;;;;;5020297;28;20195;-40
2023/12/01 12:19:22;;;;;;;35.42;20.15;;;2.10;99.90;;;;;;5020800;28;20527;-36
2023/12/01 12:21:49;;;;;;;32.50;19.48;;;2.10;99.90;;;;;;5020621;28;20187;-37
2023/12/01 12:24:15;;;;;;;37.63;20.55;;;2.10;99.90;;;;;;5019490;28;20683;-38
2023/12/01 12:26:42;;;;;;;37.60;20.35;;;2.10;99.90;;;;;;5020544;28;20246;-36
2023/12/01 12:29:08;;;;;;;40.28;20.13;;;2.00;99.90;;;;;;5020823;28;20310;-36
2023/12/01 12:31:35;;;;;;;33.50;18.85;;;2.00;99.90;;;;;;5020787;28;20211;-38
2023/12/01 12:34:04;;;;;;;39.35;20.17;;;2.00;99.90;;;;;;5020616;28;20492;-38
2023/12/01 12:36:32;;;;;;;35.10;19.52;;;1.90;99.90;;;;;;5020832;28;20373;-38
2023/12/01 12:39:04;;;;;;;37.55;19.48;;;1.90;99.90;;;;;;5019254;28;20196;-36
2023/12/01 12:41:35;;;;;;;32.75;18.73;;;1.80;99.90;;;;;;5019368;28;20234;-40